createdAt,value
2022-09-01T00:00:29.976Z,101600.13
2022-09-01T00:02:58.061Z,101596.31
2022-09-01T00:05:26.038Z,101595.28
2022-09-01T00:07:54.006Z,101592.50
2022-09-01T00:10:21.994Z,101597.00
2022-09-01T00:12:50.165Z,101596.13
2022-09-01T00:15:19.452Z,101599.63
2022-09-01T00:17:47.420Z,101589.72
2022-09-01T00:20:20.068Z,101600.66
2022-09-01T00:22:48.746Z,101598.91
2022-09-01T00:25:18.830Z,101603.59
2022-09-01T00:27:47.299Z,101602.72
2022-09-01T00:30:15.302Z,101601.69
2022-09-01T00:32:46.800Z,101611.75
2022-09-01T00:35:14.970Z,101603.78
2022-09-01T00:37:43.022Z,101606.53
2022-09-01T00:40:13.992Z,101607.41
2022-09-01T00:42:44.600Z,101604.81
2022-09-01T00:45:13.374Z,101598.38
2022-09-01T00:47:41.545Z,101601.34
2022-09-01T00:50:13.812Z,101594.75
2022-09-01T00:52:45.807Z,101588.69
2022-09-01T00:55:17.381Z,101599.63
2022-09-01T00:57:46.807Z,101595.13
2022-09-01T01:00:20.451Z,101595.78
2022-09-01T01:02:55.904Z,101595.13
2022-09-01T01:05:33.109Z,101586.78
2022-09-01T01:08:03.100Z,101592.69
2022-09-01T01:10:35.901Z,101597.19
2022-09-01T01:13:08.849Z,101586.25
2022-09-01T01:15:37.962Z,101585.75
2022-09-01T01:18:06.046Z,101591.31
2022-09-01T01:20:54.354Z,101590.22
2022-09-01T01:23:29.673Z,101589.56
2022-09-01T01:26:00.950Z,101585.91
2022-09-01T01:28:32.485Z,101583.66
2022-09-01T01:31:06.802Z,101590.25
2022-09-01T01:33:40.736Z,101593.69
2022-09-01T01:36:13.319Z,101590.94
2022-09-01T01:38:43.211Z,101593.56
2022-09-01T01:41:14.173Z,101589.75
2022-09-01T01:43:42.448Z,101602.22
2022-09-01T01:46:12.374Z,101603.06
2022-09-01T01:48:44.107Z,101605.00
2022-09-01T01:51:13.899Z,101608.09
2022-09-01T01:53:43.873Z,101605.31
2022-09-01T01:56:13.223Z,101609.13
2022-09-01T01:58:41.295Z,101606.69
2022-09-01T02:01:13.124Z,101604.06
2022-09-01T02:03:42.046Z,101612.41
2022-09-01T02:06:12.077Z,101608.75
2022-09-01T02:08:42.045Z,101600.81
2022-09-01T02:11:11.041Z,101603.75
2022-09-01T02:13:40.549Z,101600.09
2022-09-01T02:16:12.912Z,101600.44
2022-09-01T02:18:48.586Z,101612.59
2022-09-01T02:21:20.557Z,101601.84
2022-09-01T02:23:50.789Z,101606.16
2022-09-01T02:26:18.975Z,101610.84
2022-09-01T02:28:55.268Z,101605.31
2022-09-01T02:31:28.183Z,101604.75
2022-09-01T02:33:57.476Z,101606.66
2022-09-01T02:36:26.619Z,101605.78
2022-09-01T02:38:56.732Z,101596.78
2022-09-01T02:41:34.616Z,101599.91
2022-09-01T02:44:11.750Z,101600.78
2022-09-01T02:46:41.929Z,101591.03
2022-09-01T02:49:15.261Z,101598.66
2022-09-01T02:51:44.524Z,101598.00
2022-09-01T02:54:14.007Z,101593.81
2022-09-01T02:56:42.282Z,101595.88
2022-09-01T02:59:13.123Z,101592.25
2022-09-01T03:01:41.870Z,101597.44
2022-09-01T03:04:10.383Z,101592.91
2022-09-01T03:06:39.912Z,101590.31
2022-09-01T03:09:11.201Z,101595.84
2022-09-01T03:11:41.621Z,101597.25
2022-09-01T03:14:12.344Z,101591.88
2022-09-01T03:16:41.806Z,101591.00
2022-09-01T03:19:12.046Z,101597.56
2022-09-01T03:21:44.111Z,101596.91
2022-09-01T03:24:17.989Z,101598.59
2022-09-01T03:26:50.392Z,101594.28
2022-09-01T03:29:21.409Z,101604.66
2022-09-01T03:31:49.825Z,101600.31
2022-09-01T03:34:20.802Z,101602.22
2022-09-01T03:36:51.289Z,101598.03
2022-09-01T03:39:26.540Z,101599.94
2022-09-01T03:41:55.380Z,101597.16
2022-09-01T03:44:24.807Z,101594.38
2022-09-01T03:46:52.946Z,101594.03
2022-09-01T03:49:27.770Z,101596.97
2022-09-01T03:51:57.436Z,101590.88
2022-09-01T03:54:30.380Z,101590.38
2022-09-01T03:57:00.717Z,101583.25
2022-09-01T03:59:32.031Z,101579.78
2022-09-01T04:02:00.258Z,101572.66
2022-09-01T04:04:29.409Z,101582.03
2022-09-01T04:06:57.695Z,101574.75
2022-09-01T04:09:25.788Z,101571.25
2022-09-01T04:11:54.151Z,101587.88
2022-09-01T04:14:27.621Z,101579.75
2022-09-01T04:17:17.733Z,101579.75
2022-09-01T04:20:01.652Z,101581.13
2022-09-01T04:22:32.004Z,101574.88
2022-09-01T04:25:00.358Z,101582.47
2022-09-01T04:27:29.052Z,101585.41
2022-09-01T04:29:58.061Z,101578.31
2022-09-01T04:32:30.871Z,101579.19
2022-09-01T04:35:02.366Z,101580.69
2022-09-01T04:37:32.327Z,101579.31
2022-09-01T04:40:03.761Z,101580.47
2022-09-01T04:42:32.852Z,101579.06
2022-09-01T04:45:10.905Z,101581.53
2022-09-01T04:47:45.509Z,101585.31
2022-09-01T04:50:18.127Z,101577.38
2022-09-01T04:53:07.210Z,101583.06
2022-09-01T04:55:50.252Z,101579.75
2022-09-01T04:58:22.077Z,101583.38
2022-09-01T05:00:53.092Z,101582.34
2022-09-01T05:03:24.501Z,101588.06
2022-09-01T05:06:17.727Z,101593.44
2022-09-01T05:08:52.444Z,101589.06
2022-09-01T05:11:38.820Z,101591.69
2022-09-01T05:14:19.927Z,101587.19
2022-09-01T05:16:48.627Z,101588.91
2022-09-01T05:19:20.951Z,101590.66
2022-09-01T05:21:50.503Z,101587.03
2022-09-01T05:24:21.826Z,101589.63
2022-09-01T05:26:50.886Z,101591.53
2022-09-01T05:29:19.097Z,101593.28
2022-09-01T05:31:50.609Z,101590.34
2022-09-01T05:34:27.006Z,101587.56
2022-09-01T05:36:59.280Z,101592.75
2022-09-01T05:39:28.636Z,101597.78
2022-09-01T05:41:57.273Z,101601.06
2022-09-01T05:44:26.405Z,101595.53
2022-09-01T05:46:59.634Z,101595.38
2022-09-01T05:49:33.292Z,101595.22
2022-09-01T05:52:04.733Z,101607.16
2022-09-01T05:54:34.851Z,101605.97
2022-09-01T05:57:23.481Z,101605.78
2022-09-01T05:59:54.215Z,101604.91
2022-09-01T06:02:27.195Z,101603.00
2022-09-01T06:04:59.919Z,101604.59
2022-09-01T06:07:32.587Z,101611.56
2022-09-01T06:10:02.433Z,101603.06
2022-09-01T06:12:32.145Z,101608.44
2022-09-01T06:15:00.208Z,101603.59
2022-09-01T06:17:30.844Z,101608.81
2022-09-01T06:20:10.724Z,101611.25
2022-09-01T06:22:41.536Z,101614.00
2022-09-01T06:25:11.434Z,101610.94
2022-09-01T06:27:44.446Z,101611.97
2022-09-01T06:30:22.709Z,101618.72
2022-09-01T06:33:09.347Z,101610.41
2022-09-01T06:35:40.548Z,101608.69
2022-09-01T06:38:10.376Z,101612.03
2022-09-01T06:40:42.680Z,101611.00
2022-09-01T06:43:14.086Z,101615.16
2022-09-01T06:45:49.824Z,101617.44
2022-09-01T06:48:20.047Z,101617.09
2022-09-01T06:53:39.013Z,101613.69
2022-09-01T06:56:13.444Z,101610.06
2022-09-01T06:58:48.337Z,101621.19
2022-09-01T07:01:19.521Z,101620.84
2022-09-01T07:03:51.126Z,101625.91
2022-09-01T07:09:47.339Z,101613.16
2022-09-01T07:18:32.129Z,101623.47
2022-09-01T07:21:07.707Z,101622.28
2022-09-01T07:24:10.534Z,101625.13
2022-09-01T07:26:53.444Z,101620.94
2022-09-01T07:29:25.807Z,101628.59
2022-09-01T07:34:49.185Z,101616.13
2022-09-01T07:43:27.286Z,101618.66
2022-09-01T07:51:55.534Z,101622.72
2022-09-01T07:54:25.417Z,101620.91
2022-09-01T07:56:55.899Z,101614.91
2022-09-01T07:59:26.785Z,101614.56
2022-09-01T08:02:02.278Z,101621.22
2022-09-01T08:04:31.723Z,101630.84
2022-09-01T08:07:01.198Z,101626.47
2022-09-01T08:09:37.711Z,101620.34
2022-09-01T08:12:09.989Z,101621.75
2022-09-01T08:14:46.779Z,101624.19
2022-09-01T08:17:18.375Z,101623.00
2022-09-01T08:20:09.381Z,101629.91
2022-09-01T08:23:00.432Z,101618.31
2022-09-01T08:25:33.664Z,101619.66
2022-09-01T08:28:04.971Z,101622.09
2022-09-01T08:30:35.003Z,101627.03
2022-09-01T08:33:11.443Z,101618.03
2022-09-01T08:35:45.199Z,101621.91
2022-09-01T08:38:13.751Z,101613.50
2022-09-01T08:40:44.922Z,101615.69
2022-09-01T08:43:25.882Z,101617.63
2022-09-01T08:45:58.314Z,101622.78
2022-09-01T08:51:25.493Z,101616.56
2022-09-01T08:54:07.386Z,101615.47
2022-09-01T08:56:37.537Z,101615.47
2022-09-01T08:59:10.784Z,101610.09
2022-09-01T09:02:07.787Z,101609.00
2022-09-01T09:04:54.277Z,101602.94
2022-09-01T09:07:32.147Z,101609.22
2022-09-01T09:10:08.236Z,101610.31
2022-09-01T09:12:51.329Z,101600.81
2022-09-01T09:15:31.436Z,101607.06
2022-09-01T09:18:23.350Z,101599.72
2022-09-01T09:20:58.686Z,101598.88
2022-09-01T09:23:31.483Z,101603.41
2022-09-01T09:25:59.986Z,101598.25
2022-09-01T09:28:28.045Z,101599.34
2022-09-01T09:31:29.379Z,101585.78
2022-09-01T09:33:59.384Z,101587.47
2022-09-01T09:36:33.186Z,101582.31
2022-09-01T09:39:13.394Z,101581.03
2022-09-01T09:41:43.013Z,101583.38
2022-09-01T09:44:26.895Z,101581.00
2022-09-01T09:46:57.947Z,101574.94
2022-09-01T09:49:35.921Z,101567.84
2022-09-01T09:52:18.126Z,101580.78
2022-09-01T09:55:03.841Z,101570.84
2022-09-01T09:57:36.177Z,101567.16
2022-09-01T10:00:08.707Z,101569.31
2022-09-01T10:02:46.559Z,101566.72
2022-09-01T10:05:27.916Z,101561.31
2022-09-01T10:07:58.301Z,101559.38
2022-09-01T10:10:33.803Z,101556.13
2022-09-01T10:13:02.808Z,101543.34
2022-09-01T10:15:35.531Z,101549.81
2022-09-01T10:18:20.722Z,101549.34
2022-09-01T10:20:55.449Z,101542.38
2022-09-01T10:23:27.224Z,101540.41
2022-09-01T10:25:59.817Z,101549.25
2022-09-01T10:28:32.021Z,101561.06
2022-09-01T10:31:01.988Z,101547.47
2022-09-01T10:33:31.521Z,101546.72
2022-09-01T10:35:59.838Z,101534.81
2022-09-01T10:38:29.939Z,101542.13
2022-09-01T10:41:09.197Z,101530.41
2022-09-01T10:43:45.178Z,101535.56
2022-09-01T10:46:51.462Z,101536.00
2022-09-01T10:49:31.727Z,101534.44
2022-09-01T10:52:08.740Z,101525.34
2022-09-01T10:55:03.140Z,101519.09
2022-09-01T10:57:52.196Z,101518.19
2022-09-01T11:01:13.435Z,101528.13
2022-09-01T11:04:01.959Z,101527.63
2022-09-01T11:07:14.413Z,101518.97
2022-09-01T11:09:48.414Z,101522.38
2022-09-01T11:12:43.548Z,101518.63
2022-09-01T11:15:38.359Z,101520.31
2022-09-01T11:18:14.547Z,101516.09
2022-09-01T11:20:46.667Z,101514.53
2022-09-01T11:23:25.266Z,101504.34
2022-09-01T11:28:44.486Z,101498.03
2022-09-01T11:31:24.057Z,101496.00
2022-09-01T11:33:58.443Z,101498.31
2022-09-01T11:36:31.623Z,101507.81
2022-09-01T11:39:09.476Z,101504.75
2022-09-01T11:41:56.728Z,101500.13
2022-09-01T11:44:55.127Z,101505.38
2022-09-01T11:47:28.192Z,101492.94
2022-09-01T11:49:59.184Z,101491.84
2022-09-01T11:52:31.606Z,101492.94
2022-09-01T11:55:01.488Z,101486.22
2022-09-01T11:57:32.364Z,101489.66
2022-09-01T12:00:01.976Z,101487.94
2022-09-01T12:02:45.600Z,101483.56
2022-09-01T12:05:27.783Z,101481.34
2022-09-01T12:07:56.429Z,101483.56
2022-09-01T12:10:32.922Z,101476.53
2022-09-01T12:13:09.276Z,101478.66
2022-09-01T12:16:00.533Z,101468.88
2022-09-01T12:18:32.681Z,101469.25
2022-09-01T12:21:03.443Z,101460.72
2022-09-01T12:23:34.510Z,101461.09
2022-09-01T12:26:11.092Z,101463.44
2022-09-01T12:28:41.791Z,101463.22
2022-09-01T12:31:23.218Z,101456.63
2022-09-01T12:33:53.521Z,101452.09
2022-09-01T12:36:25.172Z,101426.41
2022-09-01T12:38:55.187Z,101447.22
2022-09-01T12:41:38.962Z,101453.81
2022-09-01T12:44:30.529Z,101444.78
2022-09-01T12:47:01.083Z,101450.88
2022-09-01T12:49:47.785Z,101441.09
2022-09-01T12:52:26.154Z,101444.41
2022-09-01T12:55:08.880Z,101436.19
2022-09-01T12:57:49.805Z,101439.50
2022-09-01T13:00:20.827Z,101435.91
2022-09-01T13:02:52.126Z,101441.78
2022-09-01T13:05:25.893Z,101433.91
2022-09-01T13:07:58.534Z,101445.41
2022-09-01T13:10:29.537Z,101437.28
2022-09-01T13:12:59.077Z,101428.91
2022-09-01T13:15:28.010Z,101428.38
2022-09-01T13:17:56.088Z,101427.63
2022-09-01T13:20:24.306Z,101422.91
2022-09-01T13:22:54.459Z,101421.28
2022-09-01T13:25:24.172Z,101412.06
2022-09-01T13:27:54.952Z,101419.75
2022-09-01T13:30:28.637Z,101406.41
2022-09-01T13:35:45.835Z,101403.53
2022-09-01T13:38:16.184Z,101401.41
2022-09-01T13:40:45.558Z,101400.63
2022-09-01T13:43:15.432Z,101402.22
2022-09-01T13:45:45.362Z,101391.41
2022-09-01T13:48:15.546Z,101385.41
2022-09-01T13:53:33.745Z,101382.84
2022-09-01T13:56:01.845Z,101381.75
2022-09-01T13:58:29.955Z,101382.34
2022-09-01T14:01:00.118Z,101377.78
2022-09-01T14:03:29.761Z,101377.78
2022-09-01T14:05:57.921Z,101369.06
2022-09-01T14:08:25.902Z,101373.38
2022-09-01T14:10:55.142Z,101375.03
2022-09-01T14:13:25.741Z,101378.94
2022-09-01T14:15:54.621Z,101367.94
2022-09-01T14:18:24.834Z,101357.56
2022-09-01T14:20:54.737Z,101366.81
2022-09-01T14:23:22.793Z,101363.56
2022-09-01T14:25:52.508Z,101370.03
2022-09-01T14:28:22.407Z,101363.09
2022-09-01T14:33:20.877Z,101371.66
2022-09-01T14:35:50.593Z,101364.72
2022-09-01T14:38:19.853Z,101364.72
2022-09-01T14:40:52.518Z,101355.44
2022-09-01T14:43:20.718Z,101360.81
2022-09-01T14:45:49.821Z,101351.03
2022-09-01T14:48:20.883Z,101344.81
2022-09-01T14:50:52.844Z,101346.78
2022-09-01T14:53:22.380Z,101350.91
2022-09-01T14:55:55.563Z,101340.28
2022-09-01T14:58:25.258Z,101347.00
2022-09-01T15:01:00.344Z,101344.50
2022-09-01T15:03:35.811Z,101338.97
2022-09-01T15:06:06.783Z,101342.25
2022-09-01T15:08:35.056Z,101342.56
2022-09-01T15:11:03.101Z,101338.72
2022-09-01T15:13:31.229Z,101338.78
2022-09-01T15:15:59.600Z,101339.69
2022-09-01T15:18:27.649Z,101330.47
2022-09-01T15:20:56.133Z,101334.00
2022-09-01T15:23:27.112Z,101333.59
2022-09-01T15:25:57.835Z,101328.03
2022-09-01T15:28:28.866Z,101326.78
2022-09-01T15:31:00.118Z,101329.66
2022-09-01T15:33:28.377Z,101319.13
2022-09-01T15:35:56.531Z,101319.34
2022-09-01T15:38:30.284Z,101321.31
2022-09-01T15:41:00.445Z,101321.16
2022-09-01T15:43:29.507Z,101317.28
2022-09-01T15:45:59.522Z,101316.44
2022-09-01T15:48:28.730Z,101322.53
2022-09-01T15:51:18.246Z,101319.72
2022-09-01T15:53:47.776Z,101320.13
2022-09-01T15:56:18.642Z,101313.88
2022-09-01T15:59:01.112Z,101305.28
2022-09-01T16:01:31.963Z,101313.94
2022-09-01T16:04:01.557Z,101318.69
2022-09-01T16:06:32.702Z,101304.88
2022-09-01T16:09:02.939Z,101312.69
2022-09-01T16:11:31.147Z,101310.97
2022-09-01T16:14:01.459Z,101311.63
2022-09-01T16:16:41.764Z,101306.44
2022-09-01T16:19:24.959Z,101304.09
2022-09-01T16:22:00.863Z,101308.91
2022-09-01T16:24:30.492Z,101307.41
2022-09-01T16:26:58.923Z,101300.13
2022-09-01T16:29:33.856Z,101295.38
2022-09-01T16:32:02.091Z,101300.41
2022-09-01T16:34:32.300Z,101295.25
2022-09-01T16:37:05.743Z,101288.16
2022-09-01T16:39:42.777Z,101290.09
2022-09-01T16:42:22.706Z,101288.16
2022-09-01T16:45:00.836Z,101290.78
2022-09-01T16:47:44.846Z,101294.03
2022-09-01T16:50:22.057Z,101285.91
2022-09-01T16:53:11.034Z,101283.75
2022-09-01T16:55:56.830Z,101279.69
2022-09-01T16:58:31.880Z,101276.09
2022-09-01T17:01:14.195Z,101285.56
2022-09-01T17:03:56.964Z,101281.09
2022-09-01T17:06:31.859Z,101279.81
2022-09-01T17:09:10.149Z,101282.44
2022-09-01T17:11:49.179Z,101284.13
2022-09-01T17:14:25.534Z,101285.88
2022-09-01T17:16:55.824Z,101279.25
2022-09-01T17:19:29.262Z,101274.94
2022-09-01T17:22:05.341Z,101281.41
2022-09-01T17:24:38.567Z,101281.81
2022-09-01T17:27:14.083Z,101275.59
2022-09-01T17:29:45.083Z,101276.91
2022-09-01T17:32:32.815Z,101281.63
2022-09-01T17:35:15.956Z,101271.97
2022-09-01T17:37:59.179Z,101271.97
2022-09-01T17:44:57.147Z,101270.97
2022-09-01T17:47:37.783Z,101277.63
2022-09-01T17:50:16.313Z,101275.25
2022-09-01T17:52:53.197Z,101280.25
2022-09-01T17:55:37.144Z,101274.84
2022-09-01T17:58:13.485Z,101272.66
2022-09-01T18:00:52.763Z,101263.66
2022-09-01T18:03:35.631Z,101269.69
2022-09-01T18:06:08.519Z,101266.66
2022-09-01T18:08:40.739Z,101264.31
2022-09-01T18:11:11.512Z,101269.50
2022-09-01T18:13:53.761Z,101267.34
2022-09-01T18:16:27.183Z,101272.31
2022-09-01T18:18:58.649Z,101277.91
2022-09-01T18:21:33.295Z,101275.34
2022-09-01T18:24:14.173Z,101280.69
2022-09-01T18:26:45.948Z,101288.19
2022-09-01T18:29:14.115Z,101283.91
2022-09-01T18:32:06.575Z,101287.97
2022-09-01T18:34:48.072Z,101296.81
2022-09-01T18:37:25.914Z,101291.44
2022-09-01T18:40:03.923Z,101301.28
2022-09-01T18:42:37.684Z,101301.28
2022-09-01T18:45:12.344Z,101302.34
2022-09-01T18:47:50.247Z,101304.22
2022-09-01T18:50:25.342Z,101308.28
2022-09-01T18:53:19.269Z,101308.66
2022-09-01T18:55:53.078Z,101308.41
2022-09-01T18:58:34.427Z,101309.44
2022-09-01T19:01:07.169Z,101304.69
2022-09-01T19:03:42.729Z,101310.44
2022-09-01T19:06:29.588Z,101310.22
2022-09-01T19:09:09.827Z,101310.13
2022-09-01T19:12:03.965Z,101316.09
2022-09-01T19:14:44.794Z,101312.00
2022-09-01T19:17:26.382Z,101317.09
2022-09-01T19:20:00.406Z,101316.63
2022-09-01T19:22:37.698Z,101318.75
2022-09-01T19:25:27.722Z,101320.63
2022-09-01T19:28:02.269Z,101313.28
2022-09-01T19:30:35.315Z,101323.53
2022-09-01T19:33:06.353Z,101319.03
2022-09-01T19:35:40.412Z,101320.47
2022-09-01T19:38:10.018Z,101321.94
2022-09-01T19:40:43.601Z,101329.81
2022-09-01T19:43:15.720Z,101319.28
2022-09-01T19:45:56.880Z,101321.41
2022-09-01T19:48:32.665Z,101329.09
2022-09-01T19:51:09.030Z,101326.50
2022-09-01T19:53:46.587Z,101328.66
2022-09-01T19:56:20.583Z,101327.31
2022-09-01T19:58:59.189Z,101335.69
2022-09-01T20:01:39.339Z,101332.44
2022-09-01T20:04:18.399Z,101329.38
2022-09-01T20:06:55.235Z,101336.19
2022-09-01T20:09:30.150Z,101334.88
2022-09-01T20:12:12.281Z,101340.47
2022-09-01T20:14:56.684Z,101330.75
2022-09-01T20:17:28.979Z,101336.75
2022-09-01T20:20:01.236Z,101330.09
2022-09-01T20:22:40.263Z,101325.25
2022-09-01T20:25:13.003Z,101335.34
2022-09-01T20:28:08.683Z,101333.50
2022-09-01T20:30:44.637Z,101338.22
2022-09-01T20:33:18.015Z,101335.81
2022-09-01T20:35:51.040Z,101339.03
2022-09-01T20:38:42.639Z,101336.63
2022-09-01T20:41:20.465Z,101338.94
2022-09-01T20:43:53.086Z,101337.41
2022-09-01T20:46:23.369Z,101332.41
2022-09-01T20:48:52.021Z,101335.41
2022-09-01T20:51:27.621Z,101331.97
2022-09-01T20:54:09.176Z,101334.06
2022-09-01T20:56:51.173Z,101334.47
2022-09-01T20:59:29.485Z,101332.25
2022-09-01T21:02:05.096Z,101339.75
2022-09-01T21:04:48.185Z,101336.28
2022-09-01T21:07:19.621Z,101338.63
2022-09-01T21:10:00.790Z,101336.03
2022-09-01T21:12:38.006Z,101339.88
2022-09-01T21:15:21.453Z,101334.47
2022-09-01T21:18:04.386Z,101339.41
2022-09-01T21:20:45.934Z,101335.09
2022-09-01T21:23:16.428Z,101335.88
2022-09-01T21:25:46.513Z,101336.50
2022-09-01T21:28:20.343Z,101335.00
2022-09-01T21:30:52.107Z,101329.63
2022-09-01T21:33:21.043Z,101335.97
2022-09-01T21:35:49.512Z,101327.63
2022-09-01T21:38:18.194Z,101327.78
2022-09-01T21:40:49.324Z,101330.56
2022-09-01T21:43:20.085Z,101328.16
2022-09-01T21:45:49.678Z,101322.94
2022-09-01T21:48:38.002Z,101332.75
2022-09-01T21:51:06.705Z,101319.44
2022-09-01T21:53:35.259Z,101320.50
2022-09-01T21:56:05.729Z,101320.50
2022-09-01T21:58:34.403Z,101322.09
2022-09-01T22:01:03.700Z,101326.16
2022-09-01T22:03:32.363Z,101319.91
2022-09-01T22:06:00.929Z,101322.88
2022-09-01T22:08:29.485Z,101316.84
2022-09-01T22:10:57.999Z,101314.44
2022-09-01T22:13:28.060Z,101310.09
2022-09-01T22:15:56.619Z,101309.84
2022-09-01T22:18:24.968Z,101311.06
2022-09-01T22:21:02.870Z,101313.84
2022-09-01T22:23:31.703Z,101312.69
2022-09-01T22:26:00.116Z,101307.69
2022-09-01T22:28:30.243Z,101310.47
2022-09-01T22:30:58.846Z,101311.94
2022-09-01T22:33:27.351Z,101322.38
2022-09-01T22:35:57.821Z,101303.25
2022-09-01T22:38:26.499Z,101306.44
2022-09-01T22:40:59.874Z,101302.75
2022-09-01T22:43:31.550Z,101304.00
2022-09-01T22:46:00.910Z,101303.91
2022-09-01T22:48:30.250Z,101311.19
2022-09-01T22:50:58.787Z,101301.69
2022-09-01T22:53:27.131Z,101298.91
2022-09-01T22:55:55.698Z,101309.34
2022-09-01T22:58:24.485Z,101302.44
2022-09-01T23:00:59.653Z,101299.28
2022-09-01T23:03:28.368Z,101298.13
2022-09-01T23:06:05.668Z,101302.44
2022-09-01T23:08:34.599Z,101295.72
2022-09-01T23:11:03.491Z,101298.50
2022-09-01T23:13:34.216Z,101291.38
2022-09-01T23:16:06.195Z,101286.69
2022-09-01T23:18:36.973Z,101292.81
2022-09-01T23:21:07.451Z,101293.69
2022-09-01T23:23:36.975Z,101292.13
2022-09-01T23:26:08.529Z,101288.50
2022-09-01T23:28:38.080Z,101289.72
2022-09-01T23:31:10.813Z,101285.91
2022-09-01T23:34:01.810Z,101293.47
2022-09-01T23:36:31.231Z,101289.78
2022-09-01T23:38:59.588Z,101291.34
2022-09-01T23:41:31.293Z,101293.09
2022-09-01T23:44:02.910Z,101289.78
2022-09-01T23:46:38.197Z,101289.78
2022-09-01T23:49:07.228Z,101287.41
2022-09-01T23:51:35.904Z,101278.03
2022-09-01T23:54:04.584Z,101274.38
2022-09-01T23:56:33.051Z,101269.00
2022-09-01T23:59:02.114Z,101270.75
